sensor_id;sensor_type;location;lat;lon;timestamp;pressure;altitude;pressure_sealevel;temperature
24201;BMP280;2801;50.972;7.856;2024-01-07T00:00:36;97245.28;;;3.19
24201;BMP280;2801;50.972;7.856;2024-01-07T00:03:04;97244.78;;;3.17
24201;BMP280;2801;50.972;7.856;2024-01-07T00:05:31;97257.72;;;3.18
24201;BMP280;2801;50.972;7.856;2024-01-07T00:08:00;97253.78;;;3.16
24201;BMP280;2801;50.972;7.856;2024-01-07T00:10:27;97256.19;;;3.12
24201;BMP280;2801;50.972;7.856;2024-01-07T00:12:54;97264.38;;;3.16
24201;BMP280;2801;50.972;7.856;2024-01-07T00:15:21;97264.13;;;3.12
24201;BMP280;2801;50.972;7.856;2024-01-07T00:17:48;97269.91;;;3.19
24201;BMP280;2801;50.972;7.856;2024-01-07T00:20:16;97271.78;;;3.19
24201;BMP280;2801;50.972;7.856;2024-01-07T00:22:43;97271.53;;;3.15
24201;BMP280;2801;50.972;7.856;2024-01-07T00:25:10;97272.34;;;3.16
24201;BMP280;2801;50.972;7.856;2024-01-07T00:27:37;97274.44;;;3.19
24201;BMP280;2801;50.972;7.856;2024-01-07T00:30:05;97276.00;;;3.20
24201;BMP280;2801;50.972;7.856;2024-01-07T00:32:32;97280.47;;;3.24
24201;BMP280;2801;50.972;7.856;2024-01-07T00:34:59;97277.00;;;3.24
24201;BMP280;2801;50.972;7.856;2024-01-07T00:37:27;97279.66;;;3.24
24201;BMP280;2801;50.972;7.856;2024-01-07T00:39:54;97279.66;;;3.24
24201;BMP280;2801;50.972;7.856;2024-01-07T00:42:21;97285.75;;;3.24
24201;BMP280;2801;50.972;7.856;2024-01-07T00:44:48;97287.09;;;3.22
24201;BMP280;2801;50.972;7.856;2024-01-07T00:47:16;97277.34;;;3.17
24201;BMP280;2801;50.972;7.856;2024-01-07T00:49:43;97282.66;;;3.17
24201;BMP280;2801;50.972;7.856;2024-01-07T00:52:10;97290.06;;;3.15
24201;BMP280;2801;50.972;7.856;2024-01-07T00:54:38;97283.16;;;3.19
24201;BMP280;2801;50.972;7.856;2024-01-07T00:57:05;97288.78;;;3.13
24201;BMP280;2801;50.972;7.856;2024-01-07T00:59:31;97286.34;;;3.16
24201;BMP280;2801;50.972;7.856;2024-01-07T01:02:03;97295.44;;;3.10
24201;BMP280;2801;50.972;7.856;2024-01-07T01:04:30;97299.59;;;3.16
24201;BMP280;2801;50.972;7.856;2024-01-07T01:06:57;97293.28;;;3.12
24201;BMP280;2801;50.972;7.856;2024-01-07T01:09:24;97300.44;;;3.12
24201;BMP280;2801;50.972;7.856;2024-01-07T01:11:51;97300.94;;;3.14
24201;BMP280;2801;50.972;7.856;2024-01-07T01:14:18;97307.78;;;3.20
24201;BMP280;2801;50.972;7.856;2024-01-07T01:16:45;97310.72;;;3.18
24201;BMP280;2801;50.972;7.856;2024-01-07T01:19:12;97302.22;;;3.21
24201;BMP280;2801;50.972;7.856;2024-01-07T01:21:40;97313.09;;;3.20
24201;BMP280;2801;50.972;7.856;2024-01-07T01:24:07;97317.03;;;3.22
24201;BMP280;2801;50.972;7.856;2024-01-07T01:26:34;97321.25;;;3.23
24201;BMP280;2801;50.972;7.856;2024-01-07T01:29:01;97319.47;;;3.19
24201;BMP280;2801;50.972;7.856;2024-01-07T01:31:28;97330.81;;;3.19
24201;BMP280;2801;50.972;7.856;2024-01-07T01:33:55;97332.44;;;3.15
24201;BMP280;2801;50.972;7.856;2024-01-07T01:36:23;97328.72;;;3.16
24201;BMP280;2801;50.972;7.856;2024-01-07T01:38:50;97329.81;;;3.15
24201;BMP280;2801;50.972;7.856;2024-01-07T01:41:17;97332.19;;;3.17
24201;BMP280;2801;50.972;7.856;2024-01-07T01:43:45;97330.59;;;3.16
24201;BMP280;2801;50.972;7.856;2024-01-07T01:46:14;97332.19;;;3.17
24201;BMP280;2801;50.972;7.856;2024-01-07T01:48:42;97335.94;;;3.11
24201;BMP280;2801;50.972;7.856;2024-01-07T01:51:10;97339.16;;;3.08
24201;BMP280;2801;50.972;7.856;2024-01-07T01:53:38;97337.81;;;3.10
24201;BMP280;2801;50.972;7.856;2024-01-07T01:56:05;97342.28;;;3.10
24201;BMP280;2801;50.972;7.856;2024-01-07T01:58:33;97343.31;;;3.14
24201;BMP280;2801;50.972;7.856;2024-01-07T02:01:00;97341.47;;;3.14
24201;BMP280;2801;50.972;7.856;2024-01-07T02:03:28;97341.97;;;3.16
24201;BMP280;2801;50.972;7.856;2024-01-07T02:05:57;97340.44;;;3.10
24201;BMP280;2801;50.972;7.856;2024-01-07T02:08:25;97338.56;;;3.11
24201;BMP280;2801;50.972;7.856;2024-01-07T02:10:53;97347.84;;;3.13
24201;BMP280;2801;50.972;7.856;2024-01-07T02:13:20;97345.47;;;3.12
24201;BMP280;2801;50.972;7.856;2024-01-07T02:15:47;97346.25;;;3.12
24201;BMP280;2801;50.972;7.856;2024-01-07T02:18:14;97349.91;;;3.16
24201;BMP280;2801;50.972;7.856;2024-01-07T02:20:42;97345.47;;;3.12
24201;BMP280;2801;50.972;7.856;2024-01-07T02:23:09;97350.78;;;3.07
24201;BMP280;2801;50.972;7.856;2024-01-07T02:25:37;97352.16;;;3.04
24201;BMP280;2801;50.972;7.856;2024-01-07T02:28:05;97356.66;;;3.04
24201;BMP280;2801;50.972;7.856;2024-01-07T02:30:33;97351.66;;;3.02
24201;BMP280;2801;50.972;7.856;2024-01-07T02:33:02;97346.56;;;3.06
24201;BMP280;2801;50.972;7.856;2024-01-07T02:35:30;97354.03;;;2.99
24201;BMP280;2801;50.972;7.856;2024-01-07T02:37:57;97354.31;;;2.97
24201;BMP280;2801;50.972;7.856;2024-01-07T02:40:24;97356.72;;;2.94
24201;BMP280;2801;50.972;7.856;2024-01-07T02:42:52;97355.38;;;2.96
24201;BMP280;2801;50.972;7.856;2024-01-07T02:45:19;97359.09;;;2.95
24201;BMP280;2801;50.972;7.856;2024-01-07T02:47:46;97356.22;;;2.92
24201;BMP280;2801;50.972;7.856;2024-01-07T02:50:14;97349.59;;;2.94
24201;BMP280;2801;50.972;7.856;2024-01-07T02:52:41;97360.72;;;2.91
24201;BMP280;2801;50.972;7.856;2024-01-07T02:55:09;97362.84;;;2.94
24201;BMP280;2801;50.972;7.856;2024-01-07T02:57:36;97368.34;;;2.98
24201;BMP280;2801;50.972;7.856;2024-01-07T03:00:04;97363.84;;;2.98
24201;BMP280;2801;50.972;7.856;2024-01-07T03:02:32;97363.06;;;2.98
24201;BMP280;2801;50.972;7.856;2024-01-07T03:04:59;97361.75;;;2.95
24201;BMP280;2801;50.972;7.856;2024-01-07T03:07:27;97367.06;;;2.95
24201;BMP280;2801;50.972;7.856;2024-01-07T03:09:54;97372.09;;;2.92
24201;BMP280;2801;50.972;7.856;2024-01-07T03:12:21;97375.03;;;2.90
24201;BMP280;2801;50.972;7.856;2024-01-07T03:14:49;97371.88;;;2.88
24201;BMP280;2801;50.972;7.856;2024-01-07T03:17:16;97382.19;;;2.90
24201;BMP280;2801;50.972;7.856;2024-01-07T03:19:44;97384.00;;;2.94
24201;BMP280;2801;50.972;7.856;2024-01-07T03:22:11;97380.78;;;2.97
24201;BMP280;2801;50.972;7.856;2024-01-07T03:24:38;97381.06;;;2.96
24201;BMP280;2801;50.972;7.856;2024-01-07T03:27:05;97386.13;;;2.92
24201;BMP280;2801;50.972;7.856;2024-01-07T03:29:32;97387.97;;;2.92
24201;BMP280;2801;50.972;7.856;2024-01-07T03:32:00;97387.44;;;2.95
24201;BMP280;2801;50.972;7.856;2024-01-07T03:34:27;97390.88;;;2.95
24201;BMP280;2801;50.972;7.856;2024-01-07T03:36:54;97392.78;;;2.90
24201;BMP280;2801;50.972;7.856;2024-01-07T03:39:22;97389.09;;;2.86
24201;BMP280;2801;50.972;7.856;2024-01-07T03:41:49;97388.81;;;2.87
24201;BMP280;2801;50.972;7.856;2024-01-07T03:44:16;97395.16;;;2.86
24201;BMP280;2801;50.972;7.856;2024-01-07T03:46:43;97385.91;;;2.89
24201;BMP280;2801;50.972;7.856;2024-01-07T03:49:10;97387.47;;;2.90
24201;BMP280;2801;50.972;7.856;2024-01-07T03:51:37;97392.53;;;2.86
24201;BMP280;2801;50.972;7.856;2024-01-07T03:54:04;97389.88;;;2.86
24201;BMP280;2801;50.972;7.856;2024-01-07T03:56:32;97397.53;;;2.88
24201;BMP280;2801;50.972;7.856;2024-01-07T03:58:59;97401.53;;;2.90
24201;BMP280;2801;50.972;7.856;2024-01-07T04:01:26;97403.41;;;2.85
24201;BMP280;2801;50.972;7.856;2024-01-07T04:03:53;97412.13;;;2.85
24201;BMP280;2801;50.972;7.856;2024-01-07T04:06:21;97404.72;;;2.87
24201;BMP280;2801;50.972;7.856;2024-01-07T04:08:48;97403.63;;;2.88
24201;BMP280;2801;50.972;7.856;2024-01-07T04:11:15;97406.81;;;2.85
24201;BMP280;2801;50.972;7.856;2024-01-07T04:13:42;97410.28;;;2.86
24201;BMP280;2801;50.972;7.856;2024-01-07T04:16:20;97411.63;;;2.83
24201;BMP280;2801;50.972;7.856;2024-01-07T04:18:47;97410.56;;;2.84
24201;BMP280;2801;50.972;7.856;2024-01-07T04:21:20;97410.03;;;2.82
24201;BMP280;2801;50.972;7.856;2024-01-07T04:23:47;97418.75;;;2.83
24201;BMP280;2801;50.972;7.856;2024-01-07T04:26:15;97416.91;;;2.83
24201;BMP280;2801;50.972;7.856;2024-01-07T04:28:43;97411.38;;;2.80
24201;BMP280;2801;50.972;7.856;2024-01-07T04:31:10;97409.53;;;2.80
24201;BMP280;2801;50.972;7.856;2024-01-07T04:33:38;97418.25;;;2.81
24201;BMP280;2801;50.972;7.856;2024-01-07T04:36:05;97427.25;;;2.80
24201;BMP280;2801;50.972;7.856;2024-01-07T04:38:33;97422.47;;;2.82
24201;BMP280;2801;50.972;7.856;2024-01-07T04:41:00;97422.22;;;2.83
24201;BMP280;2801;50.972;7.856;2024-01-07T04:43:27;97421.69;;;2.81
24201;BMP280;2801;50.972;7.856;2024-01-07T04:45:54;97431.50;;;2.81
24201;BMP280;2801;50.972;7.856;2024-01-07T04:48:21;97440.53;;;2.75
24201;BMP280;2801;50.972;7.856;2024-01-07T04:50:48;97433.88;;;2.77
24201;BMP280;2801;50.972;7.856;2024-01-07T04:53:17;97436.00;;;2.80
24201;BMP280;2801;50.972;7.856;2024-01-07T04:55:44;97438.09;;;2.83
24201;BMP280;2801;50.972;7.856;2024-01-07T04:58:11;97443.13;;;2.85
24201;BMP280;2801;50.972;7.856;2024-01-07T05:00:39;97443.38;;;2.83
24201;BMP280;2801;50.972;7.856;2024-01-07T05:03:06;97445.78;;;2.85
24201;BMP280;2801;50.972;7.856;2024-01-07T05:05:33;97447.06;;;2.87
24201;BMP280;2801;50.972;7.856;2024-01-07T05:08:00;97445.78;;;2.85
24201;BMP280;2801;50.972;7.856;2024-01-07T05:10:27;97440.97;;;2.87
24201;BMP280;2801;50.972;7.856;2024-01-07T05:12:55;97445.81;;;2.75
24201;BMP280;2801;50.972;7.856;2024-01-07T05:15:22;97454.28;;;2.72
24201;BMP280;2801;50.972;7.856;2024-01-07T05:17:49;97460.91;;;2.74
24201;BMP280;2801;50.972;7.856;2024-01-07T05:20:16;97461.97;;;2.73
24201;BMP280;2801;50.972;7.856;2024-01-07T05:22:43;97461.72;;;2.70
24201;BMP280;2801;50.972;7.856;2024-01-07T05:25:10;97458.81;;;2.66
24201;BMP280;2801;50.972;7.856;2024-01-07T05:27:37;97471.53;;;2.69
24201;BMP280;2801;50.972;7.856;2024-01-07T05:30:05;97478.44;;;2.60
24201;BMP280;2801;50.972;7.856;2024-01-07T05:32:34;97481.34;;;2.64
24201;BMP280;2801;50.972;7.856;2024-01-07T05:35:02;97477.88;;;2.63
24201;BMP280;2801;50.972;7.856;2024-01-07T05:37:30;97473.13;;;2.65
24201;BMP280;2801;50.972;7.856;2024-01-07T05:39:57;97482.72;;;2.56
24201;BMP280;2801;50.972;7.856;2024-01-07T05:42:24;97478.19;;;2.57
24201;BMP280;2801;50.972;7.856;2024-01-07T05:44:51;97483.75;;;2.60
24201;BMP280;2801;50.972;7.856;2024-01-07T05:47:18;97484.00;;;2.59
24201;BMP280;2801;50.972;7.856;2024-01-07T05:49:45;97491.38;;;2.62
24201;BMP280;2801;50.972;7.856;2024-01-07T05:52:13;97488.00;;;2.56
24201;BMP280;2801;50.972;7.856;2024-01-07T05:54:40;97489.56;;;2.57
24201;BMP280;2801;50.972;7.856;2024-01-07T05:57:07;97492.50;;;2.56
24201;BMP280;2801;50.972;7.856;2024-01-07T05:59:34;97506.78;;;2.55
24201;BMP280;2801;50.972;7.856;2024-01-07T06:02:01;97503.88;;;2.56
24201;BMP280;2801;50.972;7.856;2024-01-07T06:04:29;97511.81;;;2.56
24201;BMP280;2801;50.972;7.856;2024-01-07T06:06:56;97516.03;;;2.57
24201;BMP280;2801;50.972;7.856;2024-01-07T06:09:24;97518.69;;;2.57
24201;BMP280;2801;50.972;7.856;2024-01-07T06:11:52;97517.09;;;2.56
24201;BMP280;2801;50.972;7.856;2024-01-07T06:14:19;97524.75;;;2.58
24201;BMP280;2801;50.972;7.856;2024-01-07T06:16:46;97524.28;;;2.51
24201;BMP280;2801;50.972;7.856;2024-01-07T06:19:13;97528.72;;;2.55
24201;BMP280;2801;50.972;7.856;2024-01-07T06:21:41;97532.75;;;2.48
24201;BMP280;2801;50.972;7.856;2024-01-07T06:24:09;97536.16;;;2.48
24201;BMP280;2801;50.972;7.856;2024-01-07T06:26:36;97537.75;;;2.54
24201;BMP280;2801;50.972;7.856;2024-01-07T06:29:04;97538.81;;;2.53
24201;BMP280;2801;50.972;7.856;2024-01-07T06:31:31;97546.75;;;2.48
24201;BMP280;2801;50.972;7.856;2024-01-07T06:33:59;97548.59;;;2.53
24201;BMP280;2801;50.972;7.856;2024-01-07T06:36:26;97552.56;;;2.55
24201;BMP280;2801;50.972;7.856;2024-01-07T06:38:54;97566.84;;;2.54
24201;BMP280;2801;50.972;7.856;2024-01-07T06:41:21;97565.28;;;2.53
24201;BMP280;2801;50.972;7.856;2024-01-07T06:43:48;97568.69;;;2.54
24201;BMP280;2801;50.972;7.856;2024-01-07T06:46:17;97566.31;;;2.57
24201;BMP280;2801;50.972;7.856;2024-01-07T06:48:44;97574.22;;;2.62
24201;BMP280;2801;50.972;7.856;2024-01-07T06:51:16;97577.41;;;2.59
24201;BMP280;2801;50.972;7.856;2024-01-07T06:53:43;97579.25;;;2.64
24201;BMP280;2801;50.972;7.856;2024-01-07T06:56:10;97581.66;;;2.60
24201;BMP280;2801;50.972;7.856;2024-01-07T06:58:37;97585.88;;;2.66
24201;BMP280;2801;50.972;7.856;2024-01-07T07:01:07;97590.63;;;2.69
24201;BMP280;2801;50.972;7.856;2024-01-07T07:03:34;97593.53;;;2.68
24201;BMP280;2801;50.972;7.856;2024-01-07T07:06:01;97592.47;;;2.74
24201;BMP280;2801;50.972;7.856;2024-01-07T07:08:29;97595.41;;;2.72
24201;BMP280;2801;50.972;7.856;2024-01-07T07:10:57;97593.78;;;2.71
24201;BMP280;2801;50.972;7.856;2024-01-07T07:13:24;97604.66;;;2.70
24201;BMP280;2801;50.972;7.856;2024-01-07T07:15:51;97606.75;;;2.73
24201;BMP280;2801;50.972;7.856;2024-01-07T07:18:18;97606.22;;;2.76
24201;BMP280;2801;50.972;7.856;2024-01-07T07:20:46;97619.16;;;2.82
24201;BMP280;2801;50.972;7.856;2024-01-07T07:23:13;97616.53;;;2.77
24201;BMP280;2801;50.972;7.856;2024-01-07T07:25:40;97621.56;;;2.79
24201;BMP280;2801;50.972;7.856;2024-01-07T07:28:08;97625.84;;;2.70
24201;BMP280;2801;50.972;7.856;2024-01-07T07:30:35;97630.56;;;2.73
24201;BMP280;2801;50.972;7.856;2024-01-07T07:33:03;97639.34;;;2.68
24201;BMP280;2801;50.972;7.856;2024-01-07T07:35:30;97651.25;;;2.61
24201;BMP280;2801;50.972;7.856;2024-01-07T07:37:57;97643.84;;;2.63
24201;BMP280;2801;50.972;7.856;2024-01-07T07:40:28;97643.31;;;2.66
24201;BMP280;2801;50.972;7.856;2024-01-07T07:42:55;97640.69;;;2.66
24201;BMP280;2801;50.972;7.856;2024-01-07T07:45:23;97645.69;;;2.67
24201;BMP280;2801;50.972;7.856;2024-01-07T07:47:50;97642.50;;;2.70
24201;BMP280;2801;50.972;7.856;2024-01-07T07:50:17;97654.97;;;2.70
24201;BMP280;2801;50.972;7.856;2024-01-07T07:52:46;97653.34;;;2.74
24201;BMP280;2801;50.972;7.856;2024-01-07T07:55:13;97651.75;;;2.73
24201;BMP280;2801;50.972;7.856;2024-01-07T07:57:40;97651.75;;;2.73
24201;BMP280;2801;50.972;7.856;2024-01-07T08:00:08;97654.97;;;2.70
24201;BMP280;2801;50.972;7.856;2024-01-07T08:02:39;97653.63;;;2.67
24201;BMP280;2801;50.972;7.856;2024-01-07T08:05:07;97670.28;;;2.73
24201;BMP280;2801;50.972;7.856;2024-01-07T08:07:34;97671.91;;;2.74
24201;BMP280;2801;50.972;7.856;2024-01-07T08:10:01;97661.28;;;2.79
24201;BMP280;2801;50.972;7.856;2024-01-07T08:12:28;97664.72;;;2.74
24201;BMP280;2801;50.972;7.856;2024-01-07T08:14:56;97672.69;;;2.79
24201;BMP280;2801;50.972;7.856;2024-01-07T08:17:23;97675.31;;;2.79
24201;BMP280;2801;50.972;7.856;2024-01-07T08:19:52;97687.50;;;2.75
24201;BMP280;2801;50.972;7.856;2024-01-07T08:22:20;97689.88;;;2.77
24201;BMP280;2801;50.972;7.856;2024-01-07T08:24:47;97703.41;;;2.75
24201;BMP280;2801;50.972;7.856;2024-01-07T08:27:14;97695.44;;;2.70
24201;BMP280;2801;50.972;7.856;2024-01-07T08:29:45;97697.81;;;2.77
24201;BMP280;2801;50.972;7.856;2024-01-07T08:32:12;97704.44;;;2.79
24201;BMP280;2801;50.972;7.856;2024-01-07T08:34:39;97708.16;;;2.83
24201;BMP280;2801;50.972;7.856;2024-01-07T08:37:07;97709.47;;;2.86
24201;BMP280;2801;50.972;7.856;2024-01-07T08:39:36;97711.31;;;2.85
24201;BMP280;2801;50.972;7.856;2024-01-07T08:42:04;97717.41;;;2.86
24201;BMP280;2801;50.972;7.856;2024-01-07T08:44:31;97717.13;;;2.82
24201;BMP280;2801;50.972;7.856;2024-01-07T08:46:58;97718.75;;;2.83
24201;BMP280;2801;50.972;7.856;2024-01-07T08:49:28;97728.00;;;2.86
24201;BMP280;2801;50.972;7.856;2024-01-07T08:51:56;97730.38;;;2.87
24201;BMP280;2801;50.972;7.856;2024-01-07T08:54:24;97736.72;;;2.91
24201;BMP280;2801;50.972;7.856;2024-01-07T08:56:51;97737.50;;;2.92
24201;BMP280;2801;50.972;7.856;2024-01-07T08:59:18;97746.25;;;2.87
24201;BMP280;2801;50.972;7.856;2024-01-07T09:01:45;97748.09;;;2.87
24201;BMP280;2801;50.972;7.856;2024-01-07T09:04:12;97747.56;;;2.80
24201;BMP280;2801;50.972;7.856;2024-01-07T09:06:39;97753.69;;;2.75
24201;BMP280;2801;50.972;7.856;2024-01-07T09:09:08;97763.22;;;2.76
24201;BMP280;2801;50.972;7.856;2024-01-07T09:11:35;97760.84;;;2.75
24201;BMP280;2801;50.972;7.856;2024-01-07T09:14:03;97762.69;;;2.79
24201;BMP280;2801;50.972;7.856;2024-01-07T09:16:30;97762.16;;;2.77
24201;BMP280;2801;50.972;7.856;2024-01-07T09:18:57;97767.44;;;2.77
24201;BMP280;2801;50.972;7.856;2024-01-07T09:21:25;97776.97;;;2.78
24201;BMP280;2801;50.972;7.856;2024-01-07T09:23:52;97779.34;;;2.80
24201;BMP280;2801;50.972;7.856;2024-01-07T09:26:20;97785.16;;;2.77
24201;BMP280;2801;50.972;7.856;2024-01-07T09:28:47;97777.22;;;2.77
24201;BMP280;2801;50.972;7.856;2024-01-07T09:31:14;97789.41;;;2.68
24201;BMP280;2801;50.972;7.856;2024-01-07T09:33:42;97800.25;;;2.66
24201;BMP280;2801;50.972;7.856;2024-01-07T09:36:09;97793.41;;;2.65
24201;BMP280;2801;50.972;7.856;2024-01-07T09:38:54;97797.63;;;2.56
24201;BMP280;2801;50.972;7.856;2024-01-07T09:41:22;97799.72;;;2.59
24201;BMP280;2801;50.972;7.856;2024-01-07T09:43:51;97801.59;;;2.64
24201;BMP280;2801;50.972;7.856;2024-01-07T09:46:19;97800.53;;;2.60
24201;BMP280;2801;50.972;7.856;2024-01-07T09:48:46;97800.53;;;2.65
24201;BMP280;2801;50.972;7.856;2024-01-07T09:51:15;97807.16;;;2.62
24201;BMP280;2801;50.972;7.856;2024-01-07T09:53:45;97798.69;;;2.60
24201;BMP280;2801;50.972;7.856;2024-01-07T09:56:25;97812.19;;;2.59
24201;BMP280;2801;50.972;7.856;2024-01-07T09:58:53;97801.06;;;2.57
24201;BMP280;2801;50.972;7.856;2024-01-07T10:01:20;97806.88;;;2.54
24201;BMP280;2801;50.972;7.856;2024-01-07T10:03:48;97815.88;;;2.58
24201;BMP280;2801;50.972;7.856;2024-01-07T10:06:18;97804.22;;;2.54
24201;BMP280;2801;50.972;7.856;2024-01-07T10:08:47;97816.94;;;2.52
24201;BMP280;2801;50.972;7.856;2024-01-07T10:11:14;97805.28;;;2.53
24201;BMP280;2801;50.972;7.856;2024-01-07T10:13:41;97809.25;;;2.50
24201;BMP280;2801;50.972;7.856;2024-01-07T10:16:09;97817.47;;;2.49
24201;BMP280;2801;50.972;7.856;2024-01-07T10:18:37;97817.72;;;2.47
24201;BMP280;2801;50.972;7.856;2024-01-07T10:21:06;97819.03;;;2.40
24201;BMP280;2801;50.972;7.856;2024-01-07T10:23:33;97813.97;;;2.33
24201;BMP280;2801;50.972;7.856;2024-01-07T10:26:01;97816.66;;;2.43
24201;BMP280;2801;50.972;7.856;2024-01-07T10:28:45;97815.03;;;2.32
24201;BMP280;2801;50.972;7.856;2024-01-07T10:31:13;97811.88;;;2.35
24201;BMP280;2801;50.972;7.856;2024-01-07T10:33:41;97810.84;;;2.41
24201;BMP280;2801;50.972;7.856;2024-01-07T10:36:10;97808.47;;;2.55
24201;BMP280;2801;50.972;7.856;2024-01-07T10:38:40;97807.16;;;2.57
24201;BMP280;2801;50.972;7.856;2024-01-07T10:41:11;97806.91;;;2.59
24201;BMP280;2801;50.972;7.856;2024-01-07T10:43:39;97806.34;;;2.72
24201;BMP280;2801;50.972;7.856;2024-01-07T10:46:10;97808.22;;;2.76
24201;BMP280;2801;50.972;7.856;2024-01-07T10:48:47;97816.69;;;2.78
24201;BMP280;2801;50.972;7.856;2024-01-07T10:51:18;97819.31;;;2.78
24201;BMP280;2801;50.972;7.856;2024-01-07T10:53:55;97822.25;;;2.77
24201;BMP280;2801;50.972;7.856;2024-01-07T10:56:24;97816.41;;;2.80
24201;BMP280;2801;50.972;7.856;2024-01-07T10:58:53;97821.19;;;2.88
24201;BMP280;2801;50.972;7.856;2024-01-07T11:01:24;97821.44;;;2.86
24201;BMP280;2801;50.972;7.856;2024-01-07T11:04:06;97829.41;;;2.76
24201;BMP280;2801;50.972;7.856;2024-01-07T11:09:38;97825.69;;;2.72
24201;BMP280;2801;50.972;7.856;2024-01-07T11:12:07;97832.56;;;2.73
24201;BMP280;2801;50.972;7.856;2024-01-07T11:14:43;97838.69;;;2.74
24201;BMP280;2801;50.972;7.856;2024-01-07T11:20:04;97850.81;;;2.65
24201;BMP280;2801;50.972;7.856;2024-01-07T11:22:32;97850.03;;;2.54
24201;BMP280;2801;50.972;7.856;2024-01-07T11:25:02;97845.53;;;2.55
24201;BMP280;2801;50.972;7.856;2024-01-07T11:27:32;97854.75;;;2.42
24201;BMP280;2801;50.972;7.856;2024-01-07T11:30:10;97855.53;;;2.38
24201;BMP280;2801;50.972;7.856;2024-01-07T11:32:45;97856.84;;;2.40
24201;BMP280;2801;50.972;7.856;2024-01-07T11:38:20;97847.59;;;2.38
24201;BMP280;2801;50.972;7.856;2024-01-07T11:40:49;97861.88;;;2.37
24201;BMP280;2801;50.972;7.856;2024-01-07T11:43:17;97859.00;;;2.38
24201;BMP280;2801;50.972;7.856;2024-01-07T11:45:46;97858.69;;;2.35
24201;BMP280;2801;50.972;7.856;2024-01-07T11:48:14;97861.06;;;2.26
24201;BMP280;2801;50.972;7.856;2024-01-07T11:50:42;97857.06;;;2.24
24201;BMP280;2801;50.972;7.856;2024-01-07T11:53:14;97863.69;;;2.16
24201;BMP280;2801;50.972;7.856;2024-01-07T11:55:41;97865.25;;;2.17
24201;BMP280;2801;50.972;7.856;2024-01-07T11:58:08;97868.72;;;2.18
24201;BMP280;2801;50.972;7.856;2024-01-07T12:00:35;97857.31;;;2.12
24201;BMP280;2801;50.972;7.856;2024-01-07T12:03:03;97862.03;;;2.05
24201;BMP280;2801;50.972;7.856;2024-01-07T12:05:31;97865.75;;;2.04
24201;BMP280;2801;50.972;7.856;2024-01-07T12:08:00;97863.38;;;2.08
24201;BMP280;2801;50.972;7.856;2024-01-07T12:10:28;97862.31;;;2.04
24201;BMP280;2801;50.972;7.856;2024-01-07T12:12:56;97862.78;;;1.96
24201;BMP280;2801;50.972;7.856;2024-01-07T12:15:24;97857.25;;;1.92
24201;BMP280;2801;50.972;7.856;2024-01-07T12:17:58;97856.94;;;1.89
24201;BMP280;2801;50.972;7.856;2024-01-07T12:20:29;97859.84;;;1.82
24201;BMP280;2801;50.972;7.856;2024-01-07T12:22:57;97864.03;;;1.78
24201;BMP280;2801;50.972;7.856;2024-01-07T12:25:31;97870.91;;;1.79
24201;BMP280;2801;50.972;7.856;2024-01-07T12:27:58;97874.03;;;1.71
24201;BMP280;2801;50.972;7.856;2024-01-07T12:30:25;97878.28;;;1.72
24201;BMP280;2801;50.972;7.856;2024-01-07T12:32:55;97875.88;;;1.71
24201;BMP280;2801;50.972;7.856;2024-01-07T12:35:26;97878.50;;;1.66
24201;BMP280;2801;50.972;7.856;2024-01-07T12:37:53;97881.16;;;1.66
24201;BMP280;2801;50.972;7.856;2024-01-07T12:40:22;97869.75;;;1.55
24201;BMP280;2801;50.972;7.856;2024-01-07T12:42:51;97870.25;;;1.57
24201;BMP280;2801;50.972;7.856;2024-01-07T12:45:19;97882.13;;;1.55
24201;BMP280;2801;50.972;7.856;2024-01-07T12:47:46;97881.63;;;1.58
24201;BMP280;2801;50.972;7.856;2024-01-07T12:50:14;97895.59;;;1.53
24201;BMP280;2801;50.972;7.856;2024-01-07T12:52:43;97887.06;;;1.41
24201;BMP280;2801;50.972;7.856;2024-01-07T12:55:10;97892.63;;;1.45
24201;BMP280;2801;50.972;7.856;2024-01-07T12:57:39;97894.41;;;1.34
24201;BMP280;2801;50.972;7.856;2024-01-07T13:00:07;97902.09;;;1.36
24201;BMP280;2801;50.972;7.856;2024-01-07T13:02:35;97903.41;;;1.38
24201;BMP280;2801;50.972;7.856;2024-01-07T13:05:03;97912.53;;;1.21
24201;BMP280;2801;50.972;7.856;2024-01-07T13:07:31;97911.31;;;1.02
24201;BMP280;2801;50.972;7.856;2024-01-07T13:09:58;97911.19;;;0.87
24201;BMP280;2801;50.972;7.856;2024-01-07T13:12:27;97910.53;;;1.01
24201;BMP280;2801;50.972;7.856;2024-01-07T13:15:09;97913.72;;;1.03
24201;BMP280;2801;50.972;7.856;2024-01-07T13:17:37;97921.47;;;1.15
24201;BMP280;2801;50.972;7.856;2024-01-07T13:20:05;97918.91;;;1.25
24201;BMP280;2801;50.972;7.856;2024-01-07T13:22:33;97937.13;;;1.21
24201;BMP280;2801;50.972;7.856;2024-01-07T13:25:01;97923.31;;;1.14
24201;BMP280;2801;50.972;7.856;2024-01-07T13:27:29;97936.03;;;1.17
24201;BMP280;2801;50.972;7.856;2024-01-07T13:29:59;97941.00;;;1.14
24201;BMP280;2801;50.972;7.856;2024-01-07T13:32:26;97948.91;;;1.14
24201;BMP280;2801;50.972;7.856;2024-01-07T13:34:54;97951.31;;;1.15
24201;BMP280;2801;50.972;7.856;2024-01-07T13:37:21;97960.06;;;0.94
24201;BMP280;2801;50.972;7.856;2024-01-07T13:39:48;97955.00;;;0.88
24201;BMP280;2801;50.972;7.856;2024-01-07T13:42:16;97969.63;;;0.95
24201;BMP280;2801;50.972;7.856;2024-01-07T13:44:44;97970.09;;;0.92
24201;BMP280;2801;50.972;7.856;2024-01-07T13:47:14;97980.38;;;0.89
24201;BMP280;2801;50.972;7.856;2024-01-07T13:49:41;97979.28;;;0.63
24201;BMP280;2801;50.972;7.856;2024-01-07T13:52:08;97984.47;;;0.53
24201;BMP280;2801;50.972;7.856;2024-01-07T13:54:39;97994.09;;;0.64
24201;BMP280;2801;50.972;7.856;2024-01-07T13:57:06;97990.31;;;0.60
24201;BMP280;2801;50.972;7.856;2024-01-07T13:59:34;98004.53;;;0.54
24201;BMP280;2801;50.972;7.856;2024-01-07T14:02:01;98005.25;;;0.50
24201;BMP280;2801;50.972;7.856;2024-01-07T14:04:32;98000.97;;;0.44
24201;BMP280;2801;50.972;7.856;2024-01-07T14:06:59;98013.59;;;0.42
24201;BMP280;2801;50.972;7.856;2024-01-07T14:09:26;98015.94;;;0.38
24201;BMP280;2801;50.972;7.856;2024-01-07T14:11:59;98018.00;;;0.36
24201;BMP280;2801;50.972;7.856;2024-01-07T14:14:27;98018.44;;;0.28
24201;BMP280;2801;50.972;7.856;2024-01-07T14:16:54;98014.97;;;0.28
24201;BMP280;2801;50.972;7.856;2024-01-07T14:19:21;98028.53;;;0.15
24201;BMP280;2801;50.972;7.856;2024-01-07T14:21:49;98017.75;;;0.16
24201;BMP280;2801;50.972;7.856;2024-01-07T14:24:19;98014.97;;;0.06
24201;BMP280;2801;50.972;7.856;2024-01-07T14:26:46;98037.78;;;0.17
24201;BMP280;2801;50.972;7.856;2024-01-07T14:29:12;98035.09;;;0.12
24201;BMP280;2801;50.972;7.856;2024-01-07T14:31:44;98039.38;;;0.18
24201;BMP280;2801;50.972;7.856;2024-01-07T14:34:13;98051.38;;;0.09
24201;BMP280;2801;50.972;7.856;2024-01-07T14:36:41;98053.03;;;0.15
24201;BMP280;2801;50.972;7.856;2024-01-07T14:39:11;98056.91;;;0.08
24201;BMP280;2801;50.972;7.856;2024-01-07T14:41:41;98051.22;;;-0.01
24201;BMP280;2801;50.972;7.856;2024-01-07T14:44:08;98059.28;;;0.09
24201;BMP280;2801;50.972;7.856;2024-01-07T14:46:39;98070.66;;;-0.07